Time;durP1;ratioP1;P1;durP2;ratioP2;P2;SDS_P1;SDS_P2;PMS_P1;PMS_P2;Temp;Humidity;BMP_temperature;BMP_pressure;BME280_temperature;BME280_humidity;BME280_pressure;Samples;Min_cycle;Max_cycle;Signal;HPM_P1;HPM_P2
2021/08/16 00:01:07;;;;;;;11.95;9.38;;;;;;;18.87;75.38;98809.28;5033676;28;20045;-65
2021/08/16 00:03:33;;;;;;;14.32;10.27;;;;;;;18.87;75.36;98806.59;5033706;28;20041;-65
2021/08/16 00:06:00;;;;;;;17.23;10.57;;;;;;;18.83;75.19;98817.97;5032199;28;20037;-65
2021/08/16 00:08:25;;;;;;;13.75;9.95;;;;;;;18.82;75.57;98815.56;5032243;28;20068;-65
2021/08/16 00:10:51;;;;;;;17.23;10.80;;;;;;;18.78;75.85;98820.75;5033424;28;20507;-65
2021/08/16 00:13:17;;;;;;;13.45;9.75;;;;;;;18.76;75.97;98816.78;5033367;28;20127;-65
2021/08/16 00:15:43;;;;;;;12.35;10.15;;;;;;;18.73;75.80;98828.09;5033580;28;20042;-63
2021/08/16 00:18:09;;;;;;;15.07;10.15;;;;;;;18.70;76.06;98820.66;5032256;28;20049;-65
2021/08/16 00:20:34;;;;;;;15.20;10.98;;;;;;;18.68;75.98;98812.94;5032998;28;20084;-65
2021/08/16 00:23:00;;;;;;;12.07;10.82;;;;;;;18.67;76.36;98821.28;5033186;28;20056;-65
2021/08/16 00:25:26;;;;;;;12.90;10.30;;;;;;;18.67;76.12;98823.97;5031796;28;20045;-64
2021/08/16 00:27:52;;;;;;;14.52;10.32;;;;;;;18.63;76.39;98823.78;5032913;28;20128;-63
2021/08/16 00:30:18;;;;;;;16.13;10.80;;;;;;;18.61;76.48;98824.06;5031705;28;20041;-65
2021/08/16 00:32:43;;;;;;;16.10;10.98;;;;;;;18.58;76.85;98822.00;5032846;28;20051;-65
2021/08/16 00:35:09;;;;;;;15.52;11.10;;;;;;;18.56;76.86;98824.22;5033279;28;20200;-65
2021/08/16 00:37:35;;;;;;;17.45;11.73;;;;;;;18.54;76.78;98828.28;5032652;28;20178;-64
2021/08/16 00:40:01;;;;;;;16.67;12.05;;;;;;;18.51;77.12;98835.03;5031578;28;20107;-64
2021/08/16 00:42:26;;;;;;;14.43;11.60;;;;;;;18.48;77.38;98832.97;5033128;28;20053;-66
2021/08/16 00:44:52;;;;;;;15.35;12.07;;;;;;;18.46;77.50;98835.16;5033263;28;20473;-65
2021/08/16 00:47:18;;;;;;;16.33;11.70;;;;;;;18.44;77.53;98836.56;5032725;28;20041;-65
2021/08/16 00:49:44;;;;;;;17.83;11.95;;;;;;;18.41;77.68;98835.25;5031498;28;20041;-65
2021/08/16 00:52:10;;;;;;;18.20;12.43;;;;;;;18.37;77.69;98843.13;5032636;28;20053;-65
2021/08/16 00:54:37;;;;;;;14.20;11.60;;;;;;;18.34;77.73;98849.09;5031400;28;20033;-65
2021/08/16 00:57:04;;;;;;;21.17;12.00;;;;;;;18.36;78.09;98846.13;5031316;28;20081;-65
2021/08/16 00:59:30;;;;;;;14.93;11.63;;;;;;;18.33;77.98;98852.09;4998589;28;20042;-65
2021/08/16 01:01:56;;;;;;;15.70;11.45;;;;;;;18.30;78.32;98852.69;5032561;28;20573;-65
2021/08/16 01:04:22;;;;;;;15.07;12.05;;;;;;;18.29;78.47;98853.78;5032849;28;20479;-65
2021/08/16 01:06:49;;;;;;;19.23;11.93;;;;;;;18.28;78.75;98849.53;5032619;28;20053;-65
2021/08/16 01:09:16;;;;;;;16.63;12.20;;;;;;;18.26;78.88;98860.53;5032217;28;20041;-65
2021/08/16 01:11:42;;;;;;;16.20;12.13;;;;;;;18.25;78.95;98860.84;5032195;28;20573;-64
2021/08/16 01:14:07;;;;;;;13.95;11.25;;;;;;;18.23;79.15;98852.31;5031201;28;20053;-64
2021/08/16 01:16:33;;;;;;;18.80;12.40;;;;;;;18.23;79.07;98861.13;5032464;28;20049;-64
2021/08/16 01:18:59;;;;;;;13.25;11.68;;;;;;;18.24;79.03;98856.59;5032219;28;20522;-65
2021/08/16 01:21:25;;;;;;;15.38;12.38;;;;;;;18.23;79.19;98857.66;5032122;28;20069;-65
2021/08/16 01:23:50;;;;;;;15.13;11.32;;;;;;;18.23;79.11;98865.72;5032285;28;20069;-64
2021/08/16 01:26:16;;;;;;;14.95;11.25;;;;;;;18.19;79.33;98862.84;5032244;28;20163;-66
2021/08/16 01:28:42;;;;;;;14.07;10.75;;;;;;;18.19;79.25;98860.16;5031905;28;20489;-63
2021/08/16 01:31:08;;;;;;;15.55;11.38;;;;;;;18.17;79.43;98865.81;5031988;28;20057;-64
2021/08/16 01:33:37;;;;;;;16.52;11.82;;;;;;;18.15;79.80;98867.22;5030346;28;20037;-65
2021/08/16 01:36:03;;;;;;;16.05;12.00;;;;;;;18.14;79.73;98866.41;5030571;28;20543;-65
2021/08/16 01:38:31;;;;;;;14.52;12.05;;;;;;;18.12;79.60;98865.94;5031972;28;20045;-65
2021/08/16 01:40:57;;;;;;;15.35;11.80;;;;;;;18.07;79.85;98871.41;5031798;28;20049;-65
2021/08/16 01:43:23;;;;;;;16.25;12.30;;;;;;;18.04;80.12;98868.53;5031673;28;20450;-65
2021/08/16 01:45:50;;;;;;;16.90;12.00;;;;;;;18.02;80.40;98884.91;5032244;28;20041;-66
2021/08/16 01:48:15;;;;;;;17.58;11.90;;;;;;;17.99;80.58;98877.44;5031437;28;20053;-63
2021/08/16 01:50:42;;;;;;;16.90;12.10;;;;;;;17.99;80.25;98872.09;4981301;28;20048;-65
2021/08/16 01:53:08;;;;;;;17.33;11.98;;;;;;;17.97;80.66;98874.28;5029991;28;20188;-64
2021/08/16 01:55:34;;;;;;;17.55;10.95;;;;;;;17.96;80.53;98869.22;5031619;28;20038;-63
2021/08/16 01:58:00;;;;;;;16.38;12.15;;;;;;;17.94;80.30;98869.50;5031348;28;20045;-65
2021/08/16 02:00:26;;;;;;;16.52;12.25;;;;;;;17.91;80.00;98865.56;5013774;28;20167;-64
2021/08/16 02:02:52;;;;;;;16.77;12.02;;;;;;;17.91;80.13;98870.09;5031713;28;20056;-65
2021/08/16 02:05:18;;;;;;;18.83;12.35;;;;;;;17.90;80.14;98868.53;5030320;28;20037;-64
2021/08/16 02:07:44;;;;;;;13.30;11.63;;;;;;;17.89;80.13;98874.97;5031603;28;20053;-64
2021/08/16 02:10:10;;;;;;;13.75;11.48;;;;;;;17.88;79.98;98871.50;5031663;28;20041;-65
2021/08/16 02:12:36;;;;;;;18.25;11.57;;;;;;;17.88;79.91;98878.75;5031565;28;20045;-65
2021/08/16 02:15:03;;;;;;;17.38;12.18;;;;;;;17.87;80.15;98874.47;5031695;28;20099;-65
2021/08/16 02:17:29;;;;;;;16.65;12.50;;;;;;;17.95;80.22;98891.78;5031291;28;20045;-66
2021/08/16 02:19:55;;;;;;;14.85;11.52;;;;;;;17.99;80.11;98890.88;5031507;28;20087;-64
2021/08/16 02:22:20;;;;;;;15.35;11.68;;;;;;;18.07;79.64;98886.69;5030323;28;20049;-65
2021/08/16 02:24:46;;;;;;;13.57;11.65;;;;;;;18.10;79.51;98896.81;5031552;28;20047;-65
2021/08/16 02:27:12;;;;;;;17.20;13.25;;;;;;;18.09;79.81;98898.72;5030935;28;20400;-64
2021/08/16 02:29:37;;;;;;;16.35;11.93;;;;;;;18.16;79.36;98904.47;5031164;28;20045;-66
2021/08/16 02:32:03;;;;;;;19.70;12.68;;;;;;;18.28;78.81;98901.28;5030328;28;20069;-64
2021/08/16 02:34:30;;;;;;;16.10;11.65;;;;;;;18.42;78.13;98897.78;5031457;28;20129;-65
2021/08/16 02:36:56;;;;;;;18.95;11.90;;;;;;;18.54;77.63;98895.38;5031083;28;20135;-64
2021/08/16 02:39:22;;;;;;;17.92;12.82;;;;;;;18.61;77.23;98904.59;5031424;28;20064;-64
2021/08/16 02:41:47;;;;;;;15.10;11.32;;;;;;;18.70;77.17;98902.00;5031154;28;20091;-65
2021/08/16 02:44:13;;;;;;;13.73;11.50;;;;;;;18.81;76.40;98903.38;5032392;28;20250;-64
2021/08/16 02:46:39;;;;;;;14.38;11.43;;;;;;;18.92;76.08;98897.78;5017597;28;20057;-64
2021/08/16 02:49:05;;;;;;;14.88;11.57;;;;;;;19.10;75.23;98906.78;5034031;28;20041;-65
2021/08/16 02:51:30;;;;;;;13.48;11.13;;;;;;;19.36;74.35;98906.94;5034817;28;20461;-64
2021/08/16 02:53:56;;;;;;;17.17;11.45;;;;;;;19.54;73.46;98899.78;5035089;28;20127;-65
2021/08/16 02:56:22;;;;;;;13.00;10.00;;;;;;;19.74;72.68;98904.66;5033608;28;20045;-65
2021/08/16 02:58:48;;;;;;;18.27;10.50;;;;;;;20.06;71.75;98906.22;5034888;28;20094;-65
2021/08/16 03:01:14;;;;;;;20.05;10.55;;;;;;;20.36;70.42;98906.44;5033822;28;20048;-64
2021/08/16 03:03:39;;;;;;;12.55;10.15;;;;;;;20.60;69.62;98906.81;5034925;28;20406;-63
2021/08/16 03:06:05;;;;;;;15.10;10.98;;;;;;;20.89;68.64;98900.03;5000942;28;20048;-65
2021/08/16 03:08:35;;;;;;;13.02;9.93;;;;;;;21.19;67.44;98902.84;5033299;28;20081;-64
2021/08/16 03:11:02;;;;;;;14.27;10.38;;;;;;;21.48;66.39;98899.50;5034854;28;20045;-65
2021/08/16 03:13:28;;;;;;;14.55;9.80;;;;;;;21.60;65.78;98912.31;5016861;28;20104;-64
2021/08/16 03:15:55;;;;;;;11.52;10.15;;;;;;;21.81;65.03;98915.91;5034734;28;20507;-65
2021/08/16 03:18:21;;;;;;;13.93;9.90;;;;;;;22.02;64.51;98912.47;5034675;28;20081;-65
2021/08/16 03:20:47;;;;;;;15.23;9.80;;;;;;;22.19;63.97;98912.44;5033249;28;20522;-65
2021/08/16 03:23:12;;;;;;;11.70;9.80;;;;;;;22.31;63.21;98912.50;5034278;28;20050;-64
2021/08/16 03:25:38;;;;;;;12.55;9.85;;;;;;;22.40;62.77;98912.47;5034829;28;20061;-65
2021/08/16 03:28:04;;;;;;;12.60;10.18;;;;;;;22.39;63.05;98908.97;5034521;28;20391;-62
2021/08/16 03:30:30;;;;;;;17.48;10.43;;;;;;;22.46;62.84;98913.84;5034543;28;20048;-64
2021/08/16 03:32:55;;;;;;;13.27;10.55;;;;;;;22.67;62.18;98924.66;5034471;28;20407;-64
2021/08/16 03:35:21;;;;;;;14.43;10.23;;;;;;;22.74;61.90;98922.25;5034566;28;20045;-65
2021/08/16 03:37:47;;;;;;;12.10;9.93;;;;;;;22.83;62.01;98930.28;5034396;28;20049;-65
2021/08/16 03:40:13;;;;;;;15.18;9.85;;;;;;;22.96;61.20;98936.56;5034453;28;20518;-65
2021/08/16 03:42:39;;;;;;;14.40;9.98;;;;;;;23.09;60.41;98930.91;5034349;28;20068;-65
2021/08/16 03:45:16;;;;;;;14.80;10.05;;;;;;;23.32;59.86;98942.16;5034365;28;20068;-65
2021/08/16 03:47:43;;;;;;;11.93;9.68;;;;;;;23.60;58.90;98935.34;5033952;28;20511;-65
2021/08/16 03:50:10;;;;;;;15.90;10.45;;;;;;;23.91;58.19;98941.03;5033985;28;20103;-64
2021/08/16 03:52:35;;;;;;;10.98;9.73;;;;;;;24.15;57.32;98937.59;5033586;28;20132;-65
2021/08/16 03:55:01;;;;;;;12.15;9.77;;;;;;;24.26;56.78;98946.03;5033460;28;20048;-63
2021/08/16 03:57:27;;;;;;;13.50;9.98;;;;;;;24.42;56.17;98954.28;5033763;28;20049;-64
2021/08/16 03:59:53;;;;;;;12.43;8.98;;;;;;;24.68;55.40;98943.88;5032543;28;20049;-64
2021/08/16 04:02:18;;;;;;;10.15;8.52;;;;;;;24.80;54.95;98945.78;5033436;28;20037;-64
2021/08/16 04:07:33;;;;;;;10.68;9.02;;;;;;;24.25;56.61;98947.97;5033274;28;20088;-64
2021/08/16 04:09:58;;;;;;;11.75;8.57;;;;;;;23.92;57.52;98958.09;5033612;28;20073;-64
2021/08/16 04:12:24;;;;;;;11.25;9.02;;;;;;;23.60;58.21;98965.09;5033404;28;20049;-63
2021/08/16 04:14:50;;;;;;;11.23;9.02;;;;;;;23.13;59.69;98956.13;5033758;28;20095;-63
2021/08/16 04:17:15;;;;;;;11.88;9.30;;;;;;;22.93;60.21;98965.00;5033542;28;20053;-63
2021/08/16 04:19:41;;;;;;;13.88;8.52;;;;;;;22.86;60.39;98957.44;5033756;28;20033;-63
2021/08/16 04:22:07;;;;;;;10.85;8.13;;;;;;;23.11;59.64;98961.06;5031922;28;20056;-63
2021/08/16 04:24:33;;;;;;;10.55;9.07;;;;;;;23.48;59.01;98963.16;5033213;28;20045;-63
2021/08/16 04:26:58;;;;;;;11.13;8.48;;;;;;;23.86;57.72;98960.22;5031825;28;20491;-64
2021/08/16 04:29:25;;;;;;;12.32;9.00;;;;;;;24.19;57.46;98965.56;5032093;28;20045;-64
2021/08/16 04:31:51;;;;;;;13.88;8.57;;;;;;;24.52;56.44;98967.38;5032941;28;20053;-64
2021/08/16 04:34:16;;;;;;;11.40;8.40;;;;;;;24.69;56.11;98971.78;5032741;28;20060;-63
2021/08/16 04:36:42;;;;;;;9.85;7.68;;;;;;;24.66;56.07;98972.47;5032799;28;20272;-63
2021/08/16 04:39:08;;;;;;;10.57;8.10;;;;;;;24.76;55.13;98971.97;5032834;28;20044;-64
2021/08/16 04:41:34;;;;;;;11.05;8.55;;;;;;;24.87;55.81;98966.88;5031529;28;20052;-65
2021/08/16 04:43:59;;;;;;;12.13;8.80;;;;;;;25.06;55.01;98977.09;5032783;28;20041;-64
2021/08/16 04:46:25;;;;;;;11.80;8.77;;;;;;;25.09;54.53;98977.22;5032791;28;20427;-63
2021/08/16 04:48:51;;;;;;;12.05;8.68;;;;;;;25.09;54.02;98968.28;5032589;28;20396;-63
2021/08/16 04:51:17;;;;;;;16.13;8.65;;;;;;;25.07;54.16;98970.56;5032771;28;20049;-65
2021/08/16 04:53:48;;;;;;;12.70;8.50;;;;;;;24.96;54.79;98962.09;5032835;28;20041;-64
2021/08/16 04:56:14;;;;;;;10.48;8.60;;;;;;;24.87;54.11;98961.47;5031258;28;20052;-62
2021/08/16 04:58:40;;;;;;;13.18;9.13;;;;;;;24.76;54.67;98963.06;5032330;28;20049;-62
2021/08/16 05:01:06;;;;;;;12.35;8.77;;;;;;;24.63;55.42;98960.38;5032069;28;20096;-62
2021/08/16 05:03:35;;;;;;;12.82;8.60;;;;;;;24.61;55.29;98962.63;5032944;28;20103;-62
2021/08/16 05:06:13;;;;;;;10.30;8.77;;;;;;;24.51;55.43;98965.81;5031861;28;20040;-60
2021/08/16 05:08:38;;;;;;;11.40;8.68;;;;;;;24.48;55.71;98961.06;5032055;28;20073;-61
2021/08/16 05:11:05;;;;;;;12.82;7.93;;;;;;;24.41;56.12;98964.34;5030806;28;20549;-62
2021/08/16 05:13:31;;;;;;;10.82;8.70;;;;;;;24.42;56.26;98965.13;5031979;28;20056;-62
2021/08/16 05:15:57;;;;;;;12.35;8.77;;;;;;;24.24;56.57;98940.97;5030595;28;20053;-63
2021/08/16 05:18:23;;;;;;;11.02;8.80;;;;;;;24.50;56.78;98972.34;4998303;28;20083;-62
2021/08/16 05:20:49;;;;;;;13.10;8.45;;;;;;;24.60;56.31;98974.59;5030704;28;20057;-62
2021/08/16 05:23:19;;;;;;;10.27;8.13;;;;;;;24.46;56.30;98972.25;5030746;28;20044;-62
2021/08/16 05:25:45;;;;;;;;;;;;;;;24.65;55.81;98979.00;5014494;28;20089;-61
2021/08/16 05:28:11;;;;;;;12.10;8.40;;;;;;;24.85;54.64;98985.41;5013784;28;19921;-62
2021/08/16 05:30:37;;;;;;;14.13;8.23;;;;;;;24.97;54.10;98979.94;5030738;28;20064;-63
2021/08/16 05:33:03;;;;;;;10.27;8.52;;;;;;;25.07;53.89;98979.47;5031600;28;20050;-63
2021/08/16 05:35:29;;;;;;;15.20;8.35;;;;;;;25.21;53.72;98979.13;5032085;28;20102;-63
2021/08/16 05:37:55;;;;;;;11.23;8.40;;;;;;;25.38;53.13;98983.44;5031801;28;20045;-64
2021/08/16 05:40:21;;;;;;;11.90;8.25;;;;;;;25.48;52.24;98980.25;5027508;28;20041;-60
2021/08/16 05:42:46;;;;;;;13.70;9.18;;;;;;;25.49;52.54;98981.81;5026019;28;20068;-62
2021/08/16 05:45:13;;;;;;;13.32;8.77;;;;;;;25.56;52.60;98989.38;5030730;28;20042;-63
2021/08/16 05:47:39;;;;;;;11.35;8.75;;;;;;;25.51;52.77;98981.50;5029672;28;20053;-63
2021/08/16 05:50:05;;;;;;;11.25;8.52;;;;;;;25.51;52.53;98984.22;5027467;28;20490;-63
2021/08/16 05:52:33;;;;;;;16.60;9.05;;;;;;;25.44;52.56;98986.72;5028340;28;20049;-63
2021/08/16 05:54:59;;;;;;;11.75;9.10;;;;;;;25.24;52.68;98981.16;5011583;28;20045;-66
2021/08/16 05:57:25;;;;;;;15.82;9.35;;;;;;;25.11;52.51;98974.94;4993385;28;20057;-63
2021/08/16 05:59:51;;;;;;;14.88;8.65;;;;;;;24.94;52.89;98975.22;5027950;28;20137;-61
2021/08/16 06:02:16;;;;;;;12.07;8.82;;;;;;;24.79;53.95;98986.78;5027297;28;20045;-61
2021/08/16 06:04:42;;;;;;;12.35;8.68;;;;;;;24.73;54.25;98985.44;5028563;28;20045;-61
2021/08/16 06:07:08;;;;;;;14.82;8.60;;;;;;;24.75;54.48;98988.59;5027446;28;20045;-62
2021/08/16 06:09:33;;;;;;;14.32;8.52;;;;;;;24.79;54.42;98992.97;5028751;28;20034;-61
2021/08/16 06:12:00;;;;;;;14.27;8.63;;;;;;;24.77;54.88;98991.75;5029360;28;20077;-61
2021/08/16 06:14:26;;;;;;;13.90;8.82;;;;;;;24.69;55.13;98996.94;5035069;28;20093;-63
2021/08/16 06:16:52;;;;;;;9.55;8.35;;;;;;;24.79;54.96;98992.19;5048610;28;20183;-65
2021/08/16 06:19:18;;;;;;;13.27;7.93;;;;;;;24.83;54.63;98993.88;5049463;28;20041;-61
2021/08/16 06:21:44;;;;;;;14.57;9.05;;;;;;;24.84;54.48;98990.03;5039838;28;20069;-62
2021/08/16 06:24:11;;;;;;;12.38;8.90;;;;;;;24.82;55.74;98988.78;5032157;28;20045;-62
2021/08/16 06:26:37;;;;;;;11.05;8.45;;;;;;;24.86;55.16;98993.19;5048736;28;20045;-62
2021/08/16 06:29:04;;;;;;;11.32;8.30;;;;;;;24.90;54.63;98985.94;5049990;28;20036;-61
2021/08/16 06:31:30;;;;;;;14.10;8.68;;;;;;;24.89;53.44;99000.66;5048085;28;20045;-61
2021/08/16 06:33:56;;;;;;;14.52;8.68;;;;;;;24.88;54.81;98990.94;5048437;28;20044;-61
2021/08/16 06:36:21;;;;;;;13.77;8.32;;;;;;;24.85;54.77;98994.31;5046406;28;20037;-61
2021/08/16 06:38:48;;;;;;;13.43;7.63;;;;;;;24.95;54.72;98998.50;5034337;28;20487;-62
2021/08/16 06:41:17;;;;;;;12.93;8.15;;;;;;;24.99;52.71;99001.31;5031368;28;20179;-61
2021/08/16 06:43:45;;;;;;;12.10;8.40;;;;;;;24.97;52.46;99003.56;5029649;28;20049;-62
2021/08/16 06:46:11;;;;;;;13.30;7.65;;;;;;;24.98;52.65;98994.31;5029595;28;20053;-63
2021/08/16 06:48:36;;;;;;;15.52;8.07;;;;;;;25.05;52.45;98999.94;5027367;28;20547;-63
2021/08/16 06:51:02;;;;;;;14.40;7.88;;;;;;;25.07;52.54;98994.97;5026850;28;20163;-63
2021/08/16 06:53:28;;;;;;;12.43;7.80;;;;;;;25.04;51.79;98998.38;5029775;28;20042;-62
2021/08/16 06:55:54;;;;;;;13.25;7.13;;;;;;;25.01;51.01;99001.75;5009243;28;20042;-62
2021/08/16 06:58:20;;;;;;;8.77;7.10;;;;;;;25.05;50.67;99002.66;5028409;28;20082;-62
2021/08/16 07:00:46;;;;;;;11.40;6.95;;;;;;;25.09;50.06;99006.25;5027010;28;20041;-62
2021/08/16 07:03:12;;;;;;;10.63;6.80;;;;;;;25.13;51.40;99010.66;5027307;28;20049;-61
2021/08/16 07:05:43;;;;;;;7.03;6.18;;;;;;;25.13;50.67;98997.13;5027395;28;20049;-61
2021/08/16 07:08:11;;;;;;;7.53;5.90;;;;;;;25.13;50.45;99005.25;5027068;28;20408;-62
2021/08/16 07:10:37;;;;;;;10.43;6.53;;;;;;;25.19;50.99;99003.09;5026267;28;20400;-61
2021/08/16 07:13:03;;;;;;;8.77;7.03;;;;;;;25.23;49.96;99009.41;5026181;28;20050;-62
2021/08/16 07:15:29;;;;;;;12.73;6.80;;;;;;;25.27;49.53;98998.66;5012692;28;20033;-62
2021/08/16 07:17:56;;;;;;;9.65;6.57;;;;;;;25.25;50.46;98996.28;5044902;28;20194;-62
2021/08/16 07:20:22;;;;;;;13.80;7.43;;;;;;;25.24;50.07;99004.78;5045151;28;20053;-60
2021/08/16 07:22:48;;;;;;;9.02;6.43;;;;;;;25.23;49.55;99008.59;5046955;28;20045;-61
2021/08/16 07:25:13;;;;;;;8.55;6.45;;;;;;;25.27;48.94;99012.22;5047294;28;20175;-62
2021/08/16 07:27:39;;;;;;;9.55;6.32;;;;;;;25.25;49.25;99012.56;5046124;28;20049;-63
2021/08/16 07:30:05;;;;;;;9.90;6.40;;;;;;;25.26;49.83;99008.72;5047688;28;20041;-64
2021/08/16 07:32:31;;;;;;;8.25;6.53;;;;;;;25.38;49.70;99016.00;5048233;28;20124;-61
2021/08/16 07:34:57;;;;;;;8.75;6.90;;;;;;;25.47;49.64;99013.16;5049907;28;20276;-62
2021/08/16 07:37:23;;;;;;;9.07;6.32;;;;;;;25.47;48.94;99007.72;5049364;28;20044;-61
2021/08/16 07:39:48;;;;;;;10.77;6.57;;;;;;;25.38;48.26;98997.03;5047555;28;20040;-62
2021/08/16 07:42:23;;;;;;;10.57;6.82;;;;;;;25.40;47.99;99002.91;5047353;28;20049;-61
2021/08/16 07:44:51;;;;;;;9.40;5.97;;;;;;;25.42;48.48;99000.63;5050098;28;20326;-62
2021/08/16 07:47:17;;;;;;;10.18;5.88;;;;;;;25.43;49.34;99001.41;5046087;28;20098;-62
2021/08/16 07:49:43;;;;;;;12.30;6.65;;;;;;;25.52;48.85;98999.34;5048207;28;20123;-62
2021/08/16 07:52:08;;;;;;;9.40;6.30;;;;;;;25.54;47.46;99000.56;5048423;28;20056;-63
2021/08/16 07:54:34;;;;;;;9.55;6.00;;;;;;;25.63;47.42;99003.13;5047815;28;20159;-62
2021/08/16 07:57:00;;;;;;;7.22;5.93;;;;;;;25.57;46.79;98999.88;5047976;28;20464;-63
2021/08/16 07:59:26;;;;;;;10.98;6.57;;;;;;;25.55;48.21;98996.72;5050820;28;20045;-64
2021/08/16 08:01:51;;;;;;;10.73;6.10;;;;;;;25.62;48.10;98985.28;5043727;28;20069;-63
2021/08/16 08:04:17;;;;;;;10.98;7.05;;;;;;;25.75;49.00;98991.44;5028640;28;20092;-62
2021/08/16 08:06:43;;;;;;;10.85;7.20;;;;;;;25.86;48.47;98995.25;5029343;28;20057;-63
2021/08/16 08:09:09;;;;;;;12.82;6.93;;;;;;;25.92;48.84;98993.06;5028278;28;20081;-63
2021/08/16 08:11:34;;;;;;;8.48;6.88;;;;;;;26.00;48.06;98998.31;5029859;28;20313;-64
2021/08/16 08:14:00;;;;;;;11.25;6.88;;;;;;;26.03;47.91;99005.78;5027944;28;20442;-63
2021/08/16 08:16:27;;;;;;;10.40;6.85;;;;;;;26.05;48.00;98995.31;5031855;28;20056;-63
2021/08/16 08:18:53;;;;;;;16.83;7.32;;;;;;;26.10;46.50;99001.66;5031865;28;20148;-62
2021/08/16 08:21:18;;;;;;;13.93;7.40;;;;;;;26.00;45.75;98998.31;5030663;28;20507;-63
2021/08/16 08:23:46;;;;;;;11.30;6.93;;;;;;;26.00;47.05;98994.78;5030719;28;20045;-64
2021/08/16 08:26:12;;;;;;;12.07;7.40;;;;;;;26.09;46.32;99002.78;5048324;28;20051;-64
2021/08/16 08:28:38;;;;;;;8.82;7.03;;;;;;;26.14;47.50;98983.50;5047827;28;20045;-63
2021/08/16 08:31:03;;;;;;;11.40;7.40;;;;;;;26.16;46.53;98987.44;5049725;28;20095;-63
2021/08/16 08:33:29;;;;;;;14.60;7.70;;;;;;;26.16;45.18;98979.31;5035337;28;20038;-63
2021/08/16 08:35:55;;;;;;;8.77;6.97;;;;;;;26.21;44.46;98991.84;5030441;28;20119;-64
2021/08/16 08:38:21;;;;;;;10.90;6.60;;;;;;;26.27;44.02;98990.44;5042121;28;20127;-62
2021/08/16 08:40:47;;;;;;;8.25;6.32;;;;;;;26.38;45.33;98998.81;5048399;28;20045;-63
2021/08/16 08:43:15;;;;;;;10.70;6.75;;;;;;;26.51;44.35;99000.34;5050391;28;20103;-63
2021/08/16 08:45:42;;;;;;;8.77;6.25;;;;;;;26.58;43.81;99002.44;5048371;28;20048;-63
2021/08/16 08:48:09;;;;;;;8.55;6.07;;;;;;;26.70;43.96;99007.75;5049383;28;20095;-64
2021/08/16 08:50:35;;;;;;;8.57;5.85;;;;;;;26.73;43.15;98996.16;5049251;28;20052;-62
2021/08/16 08:53:02;;;;;;;9.13;6.03;;;;;;;26.76;43.73;99002.81;5049760;28;20064;-63
2021/08/16 08:55:28;;;;;;;10.98;6.40;;;;;;;26.81;43.52;99006.06;5046049;28;20573;-63
2021/08/16 08:57:54;;;;;;;11.18;6.05;;;;;;;26.94;42.93;99001.28;5051335;28;20456;-63
2021/08/16 09:00:20;;;;;;;14.48;6.72;;;;;;;27.00;43.56;98997.13;5050005;28;20052;-62
2021/08/16 09:02:58;;;;;;;9.95;6.55;;;;;;;27.13;41.89;98995.09;5049110;28;20045;-62
2021/08/16 09:05:25;;;;;;;9.68;5.95;;;;;;;27.28;43.62;98993.47;5050582;28;20114;-63
2021/08/16 09:07:54;;;;;;;8.95;6.18;;;;;;;27.22;42.36;98992.97;5036949;28;20518;-63
2021/08/16 09:10:22;;;;;;;10.83;6.57;;;;;;;27.18;42.76;98992.13;5030306;28;20050;-62
2021/08/16 09:12:48;;;;;;;7.78;5.68;;;;;;;27.15;41.80;98988.19;5029304;28;20041;-64
2021/08/16 09:15:23;;;;;;;12.40;6.28;;;;;;;27.17;42.19;98993.25;5029411;28;20069;-64
2021/08/16 09:17:49;;;;;;;11.48;6.28;;;;;;;27.18;42.04;98995.63;5028615;28;20132;-63
2021/08/16 09:20:36;;;;;;;7.20;5.68;;;;;;;27.20;42.30;98997.97;5028759;28;20511;-63
2021/08/16 09:23:07;;;;;;;9.23;6.07;;;;;;;27.23;41.85;99004.63;5009599;28;20136;-63
2021/08/16 09:25:36;;;;;;;13.55;6.20;;;;;;;27.32;42.42;98999.75;5027265;28;20049;-62
2021/08/16 09:28:06;;;;;;;10.52;6.13;;;;;;;27.46;41.90;98997.31;4994174;28;20525;-64
2021/08/16 09:30:33;;;;;;;;;;;;;;;27.59;40.59;99006.09;5027827;28;20625;-63
2021/08/16 09:33:12;;;;;;;19.25;6.90;;;;;;;27.61;39.86;98998.38;5027320;28;19921;-64
2021/08/16 09:35:57;;;;;;;9.57;6.25;;;;;;;27.72;40.66;99004.03;5029076;28;20041;-64
2021/08/16 09:38:36;;;;;;;8.55;5.93;;;;;;;27.73;40.51;99006.38;5028468;28;20045;-62
2021/08/16 09:41:04;;;;;;;8.87;6.50;;;;;;;27.70;40.70;99007.09;5028704;28;20072;-65
2021/08/16 09:43:29;;;;;;;13.00;6.38;;;;;;;27.59;41.91;99004.19;5030331;28;20048;-63
2021/08/16 09:45:56;;;;;;;9.30;6.15;;;;;;;27.56;41.10;98998.66;5028933;28;20037;-62
2021/08/16 09:48:23;;;;;;;8.43;6.13;;;;;;;27.71;41.52;99008.69;5028791;28;20110;-64
2021/08/16 09:50:51;;;;;;;7.15;5.93;;;;;;;27.85;40.09;99006.25;5028544;28;20046;-64
2021/08/16 09:53:19;;;;;;;9.38;5.75;;;;;;;27.97;39.67;99012.66;5010467;28;20041;-63
2021/08/16 09:55:48;;;;;;;8.02;5.75;;;;;;;27.99;38.42;99000.25;5010280;28;20065;-64
2021/08/16 09:58:15;;;;;;;6.53;5.07;;;;;;;27.87;38.31;99005.88;5027309;28;20048;-63
2021/08/16 10:00:42;;;;;;;9.05;5.15;;;;;;;27.80;38.50;99001.09;5026338;28;20541;-63
2021/08/16 10:03:08;;;;;;;7.68;5.43;;;;;;;27.80;39.00;98992.16;5029135;28;20560;-63
2021/08/16 10:05:37;;;;;;;7.10;5.65;;;;;;;27.82;39.30;99008.91;5028041;28;20049;-64
2021/08/16 10:08:08;;;;;;;9.63;5.70;;;;;;;27.81;38.84;98996.44;5038677;28;20052;-63
2021/08/16 10:10:38;;;;;;;8.00;5.35;;;;;;;27.87;38.38;99002.38;5014606;28;20049;-64
2021/08/16 10:13:06;;;;;;;7.47;5.13;;;;;;;27.97;38.05;99004.47;5047826;28;20060;-64
2021/08/16 10:15:43;;;;;;;9.23;5.50;;;;;;;27.99;38.17;98996.75;5048685;28;20053;-63
2021/08/16 10:18:12;;;;;;;7.72;5.47;;;;;;;28.00;37.66;99006.47;5046645;28;20136;-63
2021/08/16 10:20:39;;;;;;;11.20;5.40;;;;;;;27.83;39.83;99005.81;5031463;28;20057;-63
2021/08/16 10:23:25;;;;;;;10.15;5.53;;;;;;;27.75;39.09;99001.38;5031738;28;20037;-65
2021/08/16 10:25:53;;;;;;;9.13;5.43;;;;;;;27.75;39.29;98992.41;5048324;28;20037;-64
2021/08/16 10:28:31;;;;;;;7.85;6.00;;;;;;;27.66;39.33;98989.13;5049923;28;20041;-65
2021/08/16 10:30:59;;;;;;;7.28;5.40;;;;;;;27.52;38.85;98995.09;5049364;28;20067;-64
2021/08/16 10:33:25;;;;;;;8.38;5.45;;;;;;;27.53;39.61;98996.66;5047869;28;20116;-64
2021/08/16 10:35:52;;;;;;;8.32;5.38;;;;;;;27.56;39.59;99004.09;5047492;28;20048;-63
2021/08/16 10:38:19;;;;;;;8.75;5.63;;;;;;;27.70;39.46;98998.94;5046915;28;20418;-63
2021/08/16 10:40:56;;;;;;;13.73;5.72;;;;;;;27.65;39.00;98985.63;5022546;28;20179;-64
2021/08/16 10:43:34;;;;;;;8.95;6.25;;;;;;;27.66;39.62;98983.69;5043435;28;20069;-62
2021/08/16 10:45:59;;;;;;;7.88;4.80;;;;;;;27.67;39.23;98988.75;5025527;28;20056;-63
2021/08/16 10:48:27;;;;;;;8.68;5.88;;;;;;;27.68;38.59;98986.81;5027700;28;20045;-64
2021/08/16 10:51:07;;;;;;;8.18;5.35;;;;;;;27.70;38.60;98982.59;5031315;28;20110;-63
2021/08/16 10:53:45;;;;;;;7.60;5.50;;;;;;;27.78;39.03;98978.88;5026899;28;20088;-64
2021/08/16 10:56:19;;;;;;;6.65;5.53;;;;;;;27.88;38.58;98976.69;5013564;28;20285;-64
2021/08/16 10:58:45;;;;;;;6.32;5.53;;;;;;;27.93;38.53;98979.91;5047752;28;20132;-65
2021/08/16 11:01:28;;;;;;;10.68;5.28;;;;;;;27.93;37.62;98979.13;5048755;28;20051;-64
2021/08/16 11:03:58;;;;;;;5.45;4.95;;;;;;;27.98;37.89;98984.28;5048589;28;20410;-64
2021/08/16 11:06:24;;;;;;;7.45;5.72;;;;;;;27.92;37.76;98975.63;5049936;28;20064;-66
2021/08/16 11:08:59;;;;;;;6.28;5.13;;;;;;;27.83;38.33;98966.91;5051471;28;20128;-65
2021/08/16 11:11:26;;;;;;;6.13;5.47;;;;;;;27.94;38.32;98972.53;5050183;28;20040;-64
2021/08/16 11:14:07;;;;;;;7.30;4.93;;;;;;;27.94;38.01;98975.25;5051834;28;20091;-64
2021/08/16 11:16:32;;;;;;;7.53;4.63;;;;;;;27.83;37.83;98961.47;5050607;28;20041;-63
2021/08/16 11:18:58;;;;;;;5.88;5.10;;;;;;;27.84;38.06;98963.81;5051144;28;20048;-63
2021/08/16 11:21:29;;;;;;;6.82;5.32;;;;;;;27.86;38.58;98971.63;5050159;28;20469;-65
2021/08/16 11:23:59;;;;;;;9.88;5.13;;;;;;;27.87;38.00;98972.41;5035184;28;20446;-65
2021/08/16 11:26:28;;;;;;;8.70;5.75;;;;;;;27.85;37.93;98965.41;5050179;28;20033;-68